sensor_id;sensor_type;location;lat;lon;timestamp;pressure;altitude;pressure_sealevel;temperature;humidity
64683;BME280;51107;47.652;19.016;2023-02-04T00:00:51;99520.00;;;3.80;91.53
64683;BME280;51107;47.652;19.016;2023-02-04T00:03:19;99511.38;;;3.92;90.47
64683;BME280;51107;47.652;19.016;2023-02-04T00:05:47;99517.25;;;3.94;90.60
64683;BME280;51107;47.652;19.016;2023-02-04T00:08:16;99511.38;;;3.92;90.69
64683;BME280;51107;47.652;19.016;2023-02-04T00:10:44;99519.09;;;3.92;90.52
64683;BME280;51107;47.652;19.016;2023-02-04T00:13:13;99525.03;;;3.81;91.97
64683;BME280;51107;47.652;19.016;2023-02-04T00:15:42;99521.91;;;3.89;91.38
64683;BME280;51107;47.652;19.016;2023-02-04T00:18:10;99527.19;;;3.87;91.30
64683;BME280;51107;47.652;19.016;2023-02-04T00:20:38;99525.66;;;3.85;91.73
64683;BME280;51107;47.652;19.016;2023-02-04T00:23:07;99536.06;;;3.72;92.91
64683;BME280;51107;47.652;19.016;2023-02-04T00:25:35;99536.06;;;3.72;92.80
64683;BME280;51107;47.652;19.016;2023-02-04T00:28:03;99540.34;;;3.71;93.01
64683;BME280;51107;47.652;19.016;2023-02-04T00:30:33;99554.16;;;3.70;93.22
64683;BME280;51107;47.652;19.016;2023-02-04T00:33:02;99551.84;;;3.79;92.74
64683;BME280;51107;47.652;19.016;2023-02-04T00:35:30;99549.63;;;3.74;93.12
64683;BME280;51107;47.652;19.016;2023-02-04T00:37:58;99545.22;;;3.87;92.53
64683;BME280;51107;47.652;19.016;2023-02-04T00:40:27;99552.19;;;3.74;93.71
64683;BME280;51107;47.652;19.016;2023-02-04T00:42:56;99549.28;;;3.79;93.94
64683;BME280;51107;47.652;19.016;2023-02-04T00:45:24;99549.25;;;3.67;94.52
64683;BME280;51107;47.652;19.016;2023-02-04T00:47:53;99550.91;;;3.68;94.80
64683;BME280;51107;47.652;19.016;2023-02-04T00:50:21;99562.84;;;3.69;94.41
64683;BME280;51107;47.652;19.016;2023-02-04T00:52:49;99540.75;;;3.78;93.49
64683;BME280;51107;47.652;19.016;2023-02-04T00:55:18;99551.97;;;3.77;93.84
64683;BME280;51107;47.652;19.016;2023-02-04T00:57:46;99544.72;;;3.82;93.52
64683;BME280;51107;47.652;19.016;2023-02-04T01:00:15;99533.88;;;3.90;92.97
64683;BME280;51107;47.652;19.016;2023-02-04T01:02:44;99545.34;;;3.97;92.00
64683;BME280;51107;47.652;19.016;2023-02-04T01:05:13;99543.78;;;3.72;94.29
64683;BME280;51107;47.652;19.016;2023-02-04T01:07:41;99527.41;;;3.84;93.13
64683;BME280;51107;47.652;19.016;2023-02-04T01:10:10;99536.34;;;3.91;92.31
64683;BME280;51107;47.652;19.016;2023-02-04T01:12:43;99522.25;;;3.84;93.16
64683;BME280;51107;47.652;19.016;2023-02-04T01:15:12;99529.63;;;3.78;94.30
64683;BME280;51107;47.652;19.016;2023-02-04T01:17:40;99521.16;;;3.76;93.07
64683;BME280;51107;47.652;19.016;2023-02-04T01:20:09;99519.59;;;3.97;92.04
64683;BME280;51107;47.652;19.016;2023-02-04T01:22:38;99517.91;;;3.73;93.32
64683;BME280;51107;47.652;19.016;2023-02-04T01:25:06;99507.00;;;3.81;94.06
64683;BME280;51107;47.652;19.016;2023-02-04T01:27:39;99508.88;;;3.68;94.24
64683;BME280;51107;47.652;19.016;2023-02-04T01:30:08;99509.22;;;3.74;93.35
64683;BME280;51107;47.652;19.016;2023-02-04T01:32:36;99501.84;;;3.81;93.63
64683;BME280;51107;47.652;19.016;2023-02-04T01:35:05;99504.94;;;3.98;92.11
64683;BME280;51107;47.652;19.016;2023-02-04T01:37:33;99510.63;;;3.79;93.63
64683;BME280;51107;47.652;19.016;2023-02-04T01:40:02;99494.81;;;3.72;93.62
64683;BME280;51107;47.652;19.016;2023-02-04T01:42:31;99510.19;;;3.85;92.74
64683;BME280;51107;47.652;19.016;2023-02-04T01:44:59;99514.97;;;3.78;92.83
64683;BME280;51107;47.652;19.016;2023-02-04T01:47:27;99513.25;;;3.90;91.76
64683;BME280;51107;47.652;19.016;2023-02-04T01:49:56;99502.91;;;3.79;93.20
64683;BME280;51107;47.652;19.016;2023-02-04T01:52:34;99497.19;;;3.86;92.76
64683;BME280;51107;47.652;19.016;2023-02-04T01:55:04;99513.47;;;3.87;92.55
64683;BME280;51107;47.652;19.016;2023-02-04T01:57:37;99501.41;;;3.76;92.34
64683;BME280;51107;47.652;19.016;2023-02-04T02:00:13;99510.44;;;3.82;91.80
64683;BME280;51107;47.652;19.016;2023-02-04T02:05:16;99507.13;;;3.80;91.92
64683;BME280;51107;47.652;19.016;2023-02-04T02:07:49;99507.00;;;3.70;92.65
64683;BME280;51107;47.652;19.016;2023-02-04T02:10:18;99521.53;;;3.82;92.35
64683;BME280;51107;47.652;19.016;2023-02-04T02:12:47;99520.84;;;3.80;92.30
64683;BME280;51107;47.652;19.016;2023-02-04T02:15:16;99514.03;;;3.68;92.49
64683;BME280;51107;47.652;19.016;2023-02-04T02:17:45;99525.41;;;3.77;92.01
64683;BME280;51107;47.652;19.016;2023-02-04T02:20:16;99520.53;;;3.61;93.33
64683;BME280;51107;47.652;19.016;2023-02-04T02:22:58;99528.91;;;3.76;92.63
64683;BME280;51107;47.652;19.016;2023-02-04T02:25:27;99522.78;;;3.65;93.84
64683;BME280;51107;47.652;19.016;2023-02-04T02:27:56;99528.22;;;3.73;93.36
64683;BME280;51107;47.652;19.016;2023-02-04T02:30:26;99531.41;;;3.88;93.20
64683;BME280;51107;47.652;19.016;2023-02-04T02:32:57;99522.84;;;3.88;92.97
64683;BME280;51107;47.652;19.016;2023-02-04T02:35:25;99526.94;;;3.79;94.45
64683;BME280;51107;47.652;19.016;2023-02-04T02:37:54;99531.88;;;3.94;93.35
64683;BME280;51107;47.652;19.016;2023-02-04T02:40:23;99529.66;;;3.89;94.13
64683;BME280;51107;47.652;19.016;2023-02-04T02:42:52;99513.06;;;3.69;95.28
64683;BME280;51107;47.652;19.016;2023-02-04T02:45:26;99514.28;;;3.76;95.58
64683;BME280;51107;47.652;19.016;2023-02-04T02:47:57;99513.84;;;3.58;96.53
64683;BME280;51107;47.652;19.016;2023-02-04T02:50:29;99520.09;;;3.67;96.50
64683;BME280;51107;47.652;19.016;2023-02-04T02:52:59;99529.28;;;3.82;95.29
64683;BME280;51107;47.652;19.016;2023-02-04T02:55:27;99524.59;;;3.76;95.33
64683;BME280;51107;47.652;19.016;2023-02-04T02:57:56;99521.69;;;4.03;93.62
64683;BME280;51107;47.652;19.016;2023-02-04T03:00:27;99520.50;;;3.96;94.49
64683;BME280;51107;47.652;19.016;2023-02-04T03:03:10;99524.47;;;3.78;95.68
64683;BME280;51107;47.652;19.016;2023-02-04T03:05:42;99519.44;;;3.76;95.69
64683;BME280;51107;47.652;19.016;2023-02-04T03:08:13;99524.34;;;3.79;96.75
64683;BME280;51107;47.652;19.016;2023-02-04T03:10:43;99516.66;;;3.90;96.30
64683;BME280;51107;47.652;19.016;2023-02-04T03:13:13;99529.75;;;3.76;97.76
64683;BME280;51107;47.652;19.016;2023-02-04T03:15:43;99517.56;;;3.78;97.90
64683;BME280;51107;47.652;19.016;2023-02-04T03:18:15;99520.25;;;3.77;98.37
64683;BME280;51107;47.652;19.016;2023-02-04T03:20:44;99518.28;;;3.80;99.47
64683;BME280;51107;47.652;19.016;2023-02-04T03:23:12;99522.84;;;3.88;98.36
64683;BME280;51107;47.652;19.016;2023-02-04T03:25:41;99510.44;;;3.82;98.41
64683;BME280;51107;47.652;19.016;2023-02-04T03:28:09;99510.97;;;3.74;100.00
64683;BME280;51107;47.652;19.016;2023-02-04T03:30:37;99514.84;;;3.68;100.00
64683;BME280;51107;47.652;19.016;2023-02-04T03:33:06;99512.50;;;3.77;100.00
64683;BME280;51107;47.652;19.016;2023-02-04T03:35:34;99503.53;;;3.58;100.00
64683;BME280;51107;47.652;19.016;2023-02-04T03:38:02;99502.72;;;3.57;100.00
64683;BME280;51107;47.652;19.016;2023-02-04T03:40:30;99488.09;;;3.58;100.00
64683;BME280;51107;47.652;19.016;2023-02-04T03:42:59;99484.06;;;3.43;100.00
64683;BME280;51107;47.652;19.016;2023-02-04T03:45:27;99482.16;;;3.33;100.00
64683;BME280;51107;47.652;19.016;2023-02-04T03:48:11;99465.09;;;3.32;100.00
64683;BME280;51107;47.652;19.016;2023-02-04T03:50:39;99471.06;;;3.44;100.00
64683;BME280;51107;47.652;19.016;2023-02-04T03:53:08;99454.78;;;3.32;100.00
64683;BME280;51107;47.652;19.016;2023-02-04T03:55:36;99453.53;;;3.49;100.00
64683;BME280;51107;47.652;19.016;2023-02-04T03:58:05;99449.56;;;3.56;100.00
64683;BME280;51107;47.652;19.016;2023-02-04T04:00:33;99447.84;;;3.57;100.00
64683;BME280;51107;47.652;19.016;2023-02-04T04:03:01;99441.38;;;3.51;100.00
64683;BME280;51107;47.652;19.016;2023-02-04T04:05:30;99451.09;;;3.48;100.00
64683;BME280;51107;47.652;19.016;2023-02-04T04:07:58;99446.03;;;3.46;100.00
64683;BME280;51107;47.652;19.016;2023-02-04T04:10:26;99460.31;;;3.39;100.00
64683;BME280;51107;47.652;19.016;2023-02-04T04:12:56;99448.28;;;3.51;100.00
64683;BME280;51107;47.652;19.016;2023-02-04T04:15:24;99452.75;;;3.60;100.00
64683;BME280;51107;47.652;19.016;2023-02-04T04:17:53;99460.22;;;3.52;100.00
64683;BME280;51107;47.652;19.016;2023-02-04T04:20:21;99462.69;;;3.65;100.00
64683;BME280;51107;47.652;19.016;2023-02-04T04:22:52;99464.69;;;3.61;100.00
64683;BME280;51107;47.652;19.016;2023-02-04T04:25:20;99456.47;;;3.45;100.00
64683;BME280;51107;47.652;19.016;2023-02-04T04:27:49;99458.38;;;3.65;100.00
64683;BME280;51107;47.652;19.016;2023-02-04T04:30:17;99472.31;;;3.63;100.00
64683;BME280;51107;47.652;19.016;2023-02-04T04:32:45;99454.84;;;3.66;100.00
64683;BME280;51107;47.652;19.016;2023-02-04T04:35:14;99453.34;;;3.64;100.00
64683;BME280;51107;47.652;19.016;2023-02-04T04:37:42;99443.97;;;3.63;100.00
64683;BME280;51107;47.652;19.016;2023-02-04T04:40:11;99430.75;;;3.67;100.00
64683;BME280;51107;47.652;19.016;2023-02-04T04:42:39;99452.75;;;3.71;100.00
64683;BME280;51107;47.652;19.016;2023-02-04T04:45:09;99444.25;;;3.82;100.00
64683;BME280;51107;47.652;19.016;2023-02-04T04:47:38;99452.22;;;3.79;100.00
64683;BME280;51107;47.652;19.016;2023-02-04T04:50:06;99467.53;;;3.81;100.00
64683;BME280;51107;47.652;19.016;2023-02-04T04:52:34;99447.38;;;3.74;100.00
64683;BME280;51107;47.652;19.016;2023-02-04T04:55:03;99448.47;;;3.83;98.98
64683;BME280;51107;47.652;19.016;2023-02-04T04:57:33;99445.19;;;3.93;98.30
64683;BME280;51107;47.652;19.016;2023-02-04T05:00:02;99441.66;;;3.82;99.38
64683;BME280;51107;47.652;19.016;2023-02-04T05:02:31;99438.97;;;3.95;96.91
64683;BME280;51107;47.652;19.016;2023-02-04T05:04:59;99426.56;;;3.89;97.43
64683;BME280;51107;47.652;19.016;2023-02-04T05:07:27;99421.16;;;3.92;96.93
64683;BME280;51107;47.652;19.016;2023-02-04T05:09:55;99433.12;;;3.93;97.79
64683;BME280;51107;47.652;19.016;2023-02-04T05:12:23;99410.50;;;3.74;100.00
64683;BME280;51107;47.652;19.016;2023-02-04T05:14:51;99395.62;;;3.89;99.04
64683;BME280;51107;47.652;19.016;2023-02-04T05:17:20;99386.88;;;3.80;100.00
64683;BME280;51107;47.652;19.016;2023-02-04T05:19:48;99382.50;;;3.92;98.01
64683;BME280;51107;47.652;19.016;2023-02-04T05:22:16;99381.72;;;3.91;97.46
64683;BME280;51107;47.652;19.016;2023-02-04T05:24:45;99377.00;;;3.85;98.62
64683;BME280;51107;47.652;19.016;2023-02-04T05:27:13;99355.81;;;3.70;99.74
64683;BME280;51107;47.652;19.016;2023-02-04T05:29:41;99367.87;;;3.70;100.00
64683;BME280;51107;47.652;19.016;2023-02-04T05:32:09;99350.19;;;3.77;99.66
64683;BME280;51107;47.652;19.016;2023-02-04T05:34:37;99343.41;;;3.76;98.84
64683;BME280;51107;47.652;19.016;2023-02-04T05:37:06;99352.91;;;3.64;100.00
64683;BME280;51107;47.652;19.016;2023-02-04T05:39:35;99355.09;;;3.68;100.00
64683;BME280;51107;47.652;19.016;2023-02-04T05:42:03;99364.38;;;3.60;100.00
64683;BME280;51107;47.652;19.016;2023-02-04T05:44:33;99389.16;;;3.61;99.79
64683;BME280;51107;47.652;19.016;2023-02-04T05:47:02;99364.12;;;3.74;96.54
64683;BME280;51107;47.652;19.016;2023-02-04T05:49:30;99363.78;;;3.67;96.70
64683;BME280;51107;47.652;19.016;2023-02-04T05:51:58;99382.72;;;3.66;94.64
64683;BME280;51107;47.652;19.016;2023-02-04T05:54:27;99387.31;;;3.63;94.18
64683;BME280;51107;47.652;19.016;2023-02-04T05:56:55;99405.91;;;3.66;93.30
64683;BME280;51107;47.652;19.016;2023-02-04T05:59:24;99408.84;;;3.62;92.07
64683;BME280;51107;47.652;19.016;2023-02-04T06:01:53;99416.88;;;3.46;92.95
64683;BME280;51107;47.652;19.016;2023-02-04T06:04:21;99416.69;;;3.49;90.60
64683;BME280;51107;47.652;19.016;2023-02-04T06:06:49;99419.13;;;3.50;90.60
64683;BME280;51107;47.652;19.016;2023-02-04T06:09:18;99430.72;;;3.45;90.38
64683;BME280;51107;47.652;19.016;2023-02-04T06:11:46;99436.16;;;3.29;91.48
64683;BME280;51107;47.652;19.016;2023-02-04T06:14:14;99438.19;;;3.36;89.73
64683;BME280;51107;47.652;19.016;2023-02-04T06:16:42;99437.69;;;3.31;89.76
64683;BME280;51107;47.652;19.016;2023-02-04T06:19:11;99444.44;;;3.21;90.15
64683;BME280;51107;47.652;19.016;2023-02-04T06:21:40;99457.12;;;3.11;90.98
64683;BME280;51107;47.652;19.016;2023-02-04T06:24:09;99448.59;;;3.11;89.52
64683;BME280;51107;47.652;19.016;2023-02-04T06:26:37;99477.38;;;3.04;90.69
64683;BME280;51107;47.652;19.016;2023-02-04T06:29:05;99490.25;;;3.04;89.10
64683;BME280;51107;47.652;19.016;2023-02-04T06:31:33;99509.28;;;3.02;88.65
64683;BME280;51107;47.652;19.016;2023-02-04T06:34:04;99515.69;;;2.96;88.83
64683;BME280;51107;47.652;19.016;2023-02-04T06:36:33;99518.03;;;2.99;87.36
64683;BME280;51107;47.652;19.016;2023-02-04T06:39:01;99519.03;;;2.85;88.32
64683;BME280;51107;47.652;19.016;2023-02-04T06:41:29;99517.44;;;2.96;86.70
64683;BME280;51107;47.652;19.016;2023-02-04T06:43:57;99510.16;;;2.89;86.14
64683;BME280;51107;47.652;19.016;2023-02-04T06:46:26;99533.19;;;2.91;86.19
64683;BME280;51107;47.652;19.016;2023-02-04T06:48:55;99523.13;;;2.88;86.17
64683;BME280;51107;47.652;19.016;2023-02-04T06:51:23;99518.47;;;2.93;84.19
64683;BME280;51107;47.652;19.016;2023-02-04T06:53:51;99526.50;;;2.88;84.66
64683;BME280;51107;47.652;19.016;2023-02-04T06:56:20;99524.97;;;2.86;84.63
64683;BME280;51107;47.652;19.016;2023-02-04T06:58:48;99505.19;;;2.86;84.66
64683;BME280;51107;47.652;19.016;2023-02-04T07:01:17;99524.97;;;2.86;84.69
64683;BME280;51107;47.652;19.016;2023-02-04T07:03:45;99532.69;;;2.86;83.60
64683;BME280;51107;47.652;19.016;2023-02-04T07:06:14;99536.19;;;2.85;83.66
64683;BME280;51107;47.652;19.016;2023-02-04T07:08:42;99545.66;;;2.84;83.58
64683;BME280;51107;47.652;19.016;2023-02-04T07:11:10;99529.72;;;2.79;83.04
64683;BME280;51107;47.652;19.016;2023-02-04T07:13:38;99557.44;;;2.76;81.57
64683;BME280;51107;47.652;19.016;2023-02-04T07:16:06;99557.13;;;2.67;81.89
64683;BME280;51107;47.652;19.016;2023-02-04T07:18:35;99559.69;;;2.67;81.49
64683;BME280;51107;47.652;19.016;2023-02-04T07:21:03;99565.97;;;2.63;82.77
64683;BME280;51107;47.652;19.016;2023-02-04T07:23:32;99586.03;;;2.58;81.82
64683;BME280;51107;47.652;19.016;2023-02-04T07:26:00;99594.66;;;2.57;80.82
64683;BME280;51107;47.652;19.016;2023-02-04T07:28:29;99600.34;;;2.62;81.10
64683;BME280;51107;47.652;19.016;2023-02-04T07:30:58;99601.78;;;2.66;80.88
64683;BME280;51107;47.652;19.016;2023-02-04T07:33:27;99602.19;;;2.73;79.84
64683;BME280;51107;47.652;19.016;2023-02-04T07:35:55;99625.22;;;2.87;77.52
64683;BME280;51107;47.652;19.016;2023-02-04T07:38:23;99605.84;;;2.95;76.39
64683;BME280;51107;47.652;19.016;2023-02-04T07:40:52;99607.19;;;3.00;75.98
64683;BME280;51107;47.652;19.016;2023-02-04T07:43:20;99630.84;;;3.05;76.17
64683;BME280;51107;47.652;19.016;2023-02-04T07:45:49;99628.37;;;3.17;78.50
64683;BME280;51107;47.652;19.016;2023-02-04T07:48:17;99621.84;;;3.24;76.84
64683;BME280;51107;47.652;19.016;2023-02-04T07:50:45;99639.38;;;3.19;76.02
64683;BME280;51107;47.652;19.016;2023-02-04T07:53:14;99643.81;;;3.17;77.07
64683;BME280;51107;47.652;19.016;2023-02-04T07:55:42;99632.56;;;3.18;74.16
64683;BME280;51107;47.652;19.016;2023-02-04T07:58:11;99644.53;;;3.06;75.72
64683;BME280;51107;47.652;19.016;2023-02-04T08:00:39;99631.69;;;3.06;75.47
64683;BME280;51107;47.652;19.016;2023-02-04T08:03:08;99643.00;;;2.91;77.11
64683;BME280;51107;47.652;19.016;2023-02-04T08:05:36;99648.56;;;2.84;75.59
64683;BME280;51107;47.652;19.016;2023-02-04T08:08:04;99647.47;;;2.76;76.29
64683;BME280;51107;47.652;19.016;2023-02-04T08:10:33;99663.28;;;2.57;77.82
64683;BME280;51107;47.652;19.016;2023-02-04T08:13:01;99662.66;;;2.53;76.96
64683;BME280;51107;47.652;19.016;2023-02-04T08:15:29;99676.66;;;2.49;77.51
64683;BME280;51107;47.652;19.016;2023-02-04T08:17:58;99667.53;;;2.58;75.93
64683;BME280;51107;47.652;19.016;2023-02-04T08:20:26;99684.56;;;2.46;76.99
64683;BME280;51107;47.652;19.016;2023-02-04T08:22:55;99693.78;;;2.35;76.69
64683;BME280;51107;47.652;19.016;2023-02-04T08:25:23;99702.72;;;2.30;77.21
64683;BME280;51107;47.652;19.016;2023-02-04T08:27:51;99719.50;;;2.35;77.37
64683;BME280;51107;47.652;19.016;2023-02-04T08:30:20;99714.34;;;2.35;76.66
64683;BME280;51107;47.652;19.016;2023-02-04T08:32:48;99710.66;;;2.40;77.26
64683;BME280;51107;47.652;19.016;2023-02-04T08:35:17;99713.28;;;2.52;76.58
64683;BME280;51107;47.652;19.016;2023-02-04T08:37:45;99700.09;;;2.44;75.09
64683;BME280;51107;47.652;19.016;2023-02-04T08:40:15;99722.38;;;2.31;76.52
64683;BME280;51107;47.652;19.016;2023-02-04T08:42:45;99739.47;;;2.32;74.45
64683;BME280;51107;47.652;19.016;2023-02-04T08:45:14;99729.19;;;2.32;74.57
64683;BME280;51107;47.652;19.016;2023-02-04T08:47:42;99732.88;;;2.28;73.87
64683;BME280;51107;47.652;19.016;2023-02-04T08:50:11;99736.44;;;2.25;75.25
64683;BME280;51107;47.652;19.016;2023-02-04T08:52:40;99736.19;;;2.43;73.10
64683;BME280;51107;47.652;19.016;2023-02-04T08:55:08;99740.66;;;2.79;73.43
64683;BME280;51107;47.652;19.016;2023-02-04T08:57:37;99759.53;;;3.05;71.11
64683;BME280;51107;47.652;19.016;2023-02-04T09:00:06;99764.59;;;3.20;69.67
64683;BME280;51107;47.652;19.016;2023-02-04T09:02:35;99779.91;;;3.34;67.47
64683;BME280;51107;47.652;19.016;2023-02-04T09:05:03;99769.72;;;3.33;67.54
64683;BME280;51107;47.652;19.016;2023-02-04T09:07:31;99789.69;;;3.55;67.33
64683;BME280;51107;47.652;19.016;2023-02-04T09:09:59;99787.50;;;3.62;66.03
64683;BME280;51107;47.652;19.016;2023-02-04T09:12:28;99823.00;;;3.95;65.07
64683;BME280;51107;47.652;19.016;2023-02-04T09:14:56;99843.13;;;3.90;64.09
64683;BME280;51107;47.652;19.016;2023-02-04T09:17:24;99861.72;;;4.19;63.96
64683;BME280;51107;47.652;19.016;2023-02-04T09:19:53;99860.19;;;4.17;63.17
64683;BME280;51107;47.652;19.016;2023-02-04T09:22:22;99880.28;;;4.49;61.82
64683;BME280;51107;47.652;19.016;2023-02-04T09:24:50;99903.78;;;4.20;62.08
64683;BME280;51107;47.652;19.016;2023-02-04T09:27:18;99916.78;;;4.31;61.07
64683;BME280;51107;47.652;19.016;2023-02-04T09:29:47;99916.84;;;4.42;61.70
64683;BME280;51107;47.652;19.016;2023-02-04T09:32:15;99914.97;;;4.45;60.69
64683;BME280;51107;47.652;19.016;2023-02-04T09:34:43;99929.56;;;4.33;60.19
64683;BME280;51107;47.652;19.016;2023-02-04T09:37:12;99942.66;;;4.67;60.90
64683;BME280;51107;47.652;19.016;2023-02-04T09:39:40;99945.28;;;5.15;58.47
64683;BME280;51107;47.652;19.016;2023-02-04T09:42:13;99981.47;;;4.78;58.79
64683;BME280;51107;47.652;19.016;2023-02-04T09:44:42;99977.94;;;4.29;58.22
64683;BME280;51107;47.652;19.016;2023-02-04T09:47:12;100010.66;;;3.90;59.92
64683;BME280;51107;47.652;19.016;2023-02-04T09:49:43;100014.63;;;3.68;61.74
64683;BME280;51107;47.652;19.016;2023-02-04T09:52:16;100021.84;;;3.63;61.66
64683;BME280;51107;47.652;19.016;2023-02-04T09:54:45;100020.69;;;3.54;61.64
64683;BME280;51107;47.652;19.016;2023-02-04T09:57:16;100045.53;;;3.55;61.77
64683;BME280;51107;47.652;19.016;2023-02-04T09:59:46;100055.16;;;3.39;60.45
64683;BME280;51107;47.652;19.016;2023-02-04T10:02:25;100073.25;;;3.37;60.60
64683;BME280;51107;47.652;19.016;2023-02-04T10:04:55;100072.66;;;3.34;62.39
64683;BME280;51107;47.652;19.016;2023-02-04T10:07:25;100079.69;;;3.45;60.85
64683;BME280;51107;47.652;19.016;2023-02-04T10:09:54;100109.50;;;3.49;59.80
64683;BME280;51107;47.652;19.016;2023-02-04T10:12:23;100115.66;;;3.46;61.75
64683;BME280;51107;47.652;19.016;2023-02-04T10:14:51;100123.13;;;3.36;59.36
64683;BME280;51107;47.652;19.016;2023-02-04T10:17:21;100141.50;;;3.45;58.72
64683;BME280;51107;47.652;19.016;2023-02-04T10:19:49;100129.75;;;3.40;58.90
64683;BME280;51107;47.652;19.016;2023-02-04T10:22:20;100153.53;;;3.44;58.96
64683;BME280;51107;47.652;19.016;2023-02-04T10:24:48;100156.97;;;3.45;58.77
64683;BME280;51107;47.652;19.016;2023-02-04T10:27:17;100163.28;;;3.53;59.26
64683;BME280;51107;47.652;19.016;2023-02-04T10:29:56;100184.34;;;3.60;60.55
64683;BME280;51107;47.652;19.016;2023-02-04T10:32:30;100184.47;;;3.86;57.64
64683;BME280;51107;47.652;19.016;2023-02-04T10:35:01;100203.19;;;4.55;57.69
64683;BME280;51107;47.652;19.016;2023-02-04T10:37:30;100190.00;;;5.12;54.96
64683;BME280;51107;47.652;19.016;2023-02-04T10:39:59;100210.50;;;5.52;55.56
64683;BME280;51107;47.652;19.016;2023-02-04T10:42:29;100211.06;;;5.68;53.04
64683;BME280;51107;47.652;19.016;2023-02-04T10:44:58;100217.63;;;5.98;53.17
64683;BME280;51107;47.652;19.016;2023-02-04T10:47:28;100210.47;;;6.37;51.69
64683;BME280;51107;47.652;19.016;2023-02-04T10:50:16;100213.34;;;6.45;52.04
64683;BME280;51107;47.652;19.016;2023-02-04T10:52:58;100214.13;;;6.35;51.75
64683;BME280;51107;47.652;19.016;2023-02-04T10:55:46;100237.97;;;6.27;50.67
64683;BME280;51107;47.652;19.016;2023-02-04T10:58:22;100244.66;;;5.68;51.58
64683;BME280;51107;47.652;19.016;2023-02-04T11:00:51;100262.50;;;4.83;53.50
64683;BME280;51107;47.652;19.016;2023-02-04T11:03:27;100257.25;;;4.44;54.14
64683;BME280;51107;47.652;19.016;2023-02-04T11:06:00;100283.03;;;4.71;55.68
64683;BME280;51107;47.652;19.016;2023-02-04T11:08:32;100291.66;;;5.36;55.19
64683;BME280;51107;47.652;19.016;2023-02-04T11:11:07;100304.72;;;5.85;55.13
64683;BME280;51107;47.652;19.016;2023-02-04T11:13:41;100308.53;;;5.92;52.08
64683;BME280;51107;47.652;19.016;2023-02-04T11:18:48;100325.56;;;5.44;50.71
64683;BME280;51107;47.652;19.016;2023-02-04T11:26:48;100349.28;;;5.75;49.76
64683;BME280;51107;47.652;19.016;2023-02-04T11:29:33;100363.88;;;5.76;52.62
64683;BME280;51107;47.652;19.016;2023-02-04T11:32:29;100366.66;;;5.99;51.41
64683;BME280;51107;47.652;19.016;2023-02-04T11:35:22;100365.59;;;6.52;47.54
64683;BME280;51107;47.652;19.016;2023-02-04T11:37:51;100376.37;;;6.08;48.27
64683;BME280;51107;47.652;19.016;2023-02-04T11:40:31;100375.87;;;6.03;51.05
64683;BME280;51107;47.652;19.016;2023-02-04T11:43:14;100401.56;;;6.43;47.95
64683;BME280;51107;47.652;19.016;2023-02-04T11:45:44;100407.25;;;6.36;47.04
64683;BME280;51107;47.652;19.016;2023-02-04T11:48:15;100418.47;;;6.23;47.58
64683;BME280;51107;47.652;19.016;2023-02-04T11:50:55;100433.50;;;5.92;47.59
64683;BME280;51107;47.652;19.016;2023-02-04T11:53:29;100432.12;;;5.61;49.25
64683;BME280;51107;47.652;19.016;2023-02-04T11:55:58;100453.44;;;5.12;49.87
64683;BME280;51107;47.652;19.016;2023-02-04T11:58:28;100446.66;;;5.23;51.83
64683;BME280;51107;47.652;19.016;2023-02-04T12:00:58;100459.22;;;5.81;47.25
64683;BME280;51107;47.652;19.016;2023-02-04T12:03:29;100454.34;;;5.51;46.38
64683;BME280;51107;47.652;19.016;2023-02-04T12:05:58;100485.41;;;5.23;48.74
64683;BME280;51107;47.652;19.016;2023-02-04T12:08:32;100478.38;;;5.25;47.87
64683;BME280;51107;47.652;19.016;2023-02-04T12:11:21;100494.59;;;5.00;50.08
64683;BME280;51107;47.652;19.016;2023-02-04T12:13:54;100499.53;;;4.90;49.11
64683;BME280;51107;47.652;19.016;2023-02-04T12:16:23;100514.94;;;4.78;48.88
64683;BME280;51107;47.652;19.016;2023-02-04T12:18:52;100496.06;;;4.63;48.42
64683;BME280;51107;47.652;19.016;2023-02-04T12:21:22;100529.88;;;4.58;48.99
64683;BME280;51107;47.652;19.016;2023-02-04T12:23:50;100518.56;;;4.46;51.22
64683;BME280;51107;47.652;19.016;2023-02-04T12:26:18;100519.38;;;4.61;49.84
64683;BME280;51107;47.652;19.016;2023-02-04T12:28:47;100507.59;;;4.42;49.05
64683;BME280;51107;47.652;19.016;2023-02-04T12:31:15;100521.13;;;4.17;50.00
64683;BME280;51107;47.652;19.016;2023-02-04T12:33:43;100534.06;;;3.87;50.12
64683;BME280;51107;47.652;19.016;2023-02-04T12:36:12;100539.59;;;3.95;51.13
64683;BME280;51107;47.652;19.016;2023-02-04T12:38:41;100552.75;;;3.90;51.00
64683;BME280;51107;47.652;19.016;2023-02-04T12:41:09;100546.25;;;3.99;51.56
64683;BME280;51107;47.652;19.016;2023-02-04T12:43:37;100550.88;;;3.78;52.13
64683;BME280;51107;47.652;19.016;2023-02-04T12:46:06;100549.22;;;3.77;52.80
64683;BME280;51107;47.652;19.016;2023-02-04T12:48:34;100565.75;;;3.59;54.27
64683;BME280;51107;47.652;19.016;2023-02-04T12:51:03;100564.97;;;3.56;54.31
64683;BME280;51107;47.652;19.016;2023-02-04T12:53:32;100580.19;;;3.61;52.23
64683;BME280;51107;47.652;19.016;2023-02-04T12:56:00;100588.84;;;3.60;52.41
64683;BME280;51107;47.652;19.016;2023-02-04T12:58:29;100593.75;;;3.49;50.64
64683;BME280;51107;47.652;19.016;2023-02-04T13:00:57;100593.91;;;3.46;51.71
64683;BME280;51107;47.652;19.016;2023-02-04T13:03:25;100597.75;;;3.38;51.12
64683;BME280;51107;47.652;19.016;2023-02-04T13:05:54;100605.81;;;3.32;49.81
64683;BME280;51107;47.652;19.016;2023-02-04T13:08:23;100614.62;;;3.28;50.01
64683;BME280;51107;47.652;19.016;2023-02-04T13:10:51;100632.47;;;3.31;48.50
64683;BME280;51107;47.652;19.016;2023-02-04T13:13:20;100628.25;;;3.14;48.27
64683;BME280;51107;47.652;19.016;2023-02-04T13:15:49;100645.84;;;3.06;49.12
64683;BME280;51107;47.652;19.016;2023-02-04T13:18:17;100639.19;;;3.02;50.10